sensor_id;sensor_type;location;lat;lon;timestamp;pressure;altitude;pressure_sealevel;temperature;humidity
22047;BME280;11187;49.412;20.956;2023-04-06T00:00:48;95122.66;;;-2.08;83.07
22047;BME280;11187;49.412;20.956;2023-04-06T00:03:22;95125.13;;;-2.10;83.54
22047;BME280;11187;49.412;20.956;2023-04-06T00:06:09;95123.31;;;-2.14;83.67
22047;BME280;11187;49.412;20.956;2023-04-06T00:08:43;95114.09;;;-2.15;83.75
22047;BME280;11187;49.412;20.956;2023-04-06T00:11:30;95114.03;;;-2.18;84.09
22047;BME280;11187;49.412;20.956;2023-04-06T00:14:03;95119.06;;;-2.16;83.79
22047;BME280;11187;49.412;20.956;2023-04-06T00:16:50;95124.06;;;-2.16;83.77
22047;BME280;11187;49.412;20.956;2023-04-06T00:19:23;95114.81;;;-2.19;83.37
22047;BME280;11187;49.412;20.956;2023-04-06T00:22:10;95113.13;;;-2.20;83.57
22047;BME280;11187;49.412;20.956;2023-04-06T00:24:43;95115.63;;;-2.20;83.37
22047;BME280;11187;49.412;20.956;2023-04-06T00:27:30;95103.78;;;-2.24;83.01
22047;BME280;11187;49.412;20.956;2023-04-06T00:30:04;95096.91;;;-2.31;82.90
22047;BME280;11187;49.412;20.956;2023-04-06T00:32:52;95091.03;;;-2.32;83.21
22047;BME280;11187;49.412;20.956;2023-04-06T00:35:25;95087.63;;;-2.34;83.51
22047;BME280;11187;49.412;20.956;2023-04-06T00:38:20;95090.94;;;-2.35;83.70
22047;BME280;11187;49.412;20.956;2023-04-06T00:41:14;95084.22;;;-2.36;84.01
22047;BME280;11187;49.412;20.956;2023-04-06T00:44:08;95085.84;;;-2.38;84.87
22047;BME280;11187;49.412;20.956;2023-04-06T00:47:02;95088.22;;;-2.41;84.24
22047;BME280;11187;49.412;20.956;2023-04-06T00:49:35;95080.63;;;-2.44;84.58
22047;BME280;11187;49.412;20.956;2023-04-06T00:52:22;95084.72;;;-2.46;84.91
22047;BME280;11187;49.412;20.956;2023-04-06T00:54:55;95077.13;;;-2.49;85.19
22047;BME280;11187;49.412;20.956;2023-04-06T00:57:42;95081.31;;;-2.48;85.18
22047;BME280;11187;49.412;20.956;2023-04-06T01:00:16;95078.78;;;-2.49;85.37
22047;BME280;11187;49.412;20.956;2023-04-06T01:03:03;95083.00;;;-2.48;85.38
22047;BME280;11187;49.412;20.956;2023-04-06T01:05:38;95072.13;;;-2.49;85.41
22047;BME280;11187;49.412;20.956;2023-04-06T01:08:32;95069.47;;;-2.54;85.85
22047;BME280;11187;49.412;20.956;2023-04-06T01:11:26;95064.47;;;-2.54;86.24
22047;BME280;11187;49.412;20.956;2023-04-06T01:13:59;95066.00;;;-2.57;85.85
22047;BME280;11187;49.412;20.956;2023-04-06T01:16:46;95059.25;;;-2.60;86.37
22047;BME280;11187;49.412;20.956;2023-04-06T01:19:19;95060.06;;;-2.61;86.43
22047;BME280;11187;49.412;20.956;2023-04-06T01:22:06;95058.31;;;-2.63;85.99
22047;BME280;11187;49.412;20.956;2023-04-06T01:24:39;95063.34;;;-2.62;85.45
22047;BME280;11187;49.412;20.956;2023-04-06T01:27:26;95069.94;;;-2.65;85.84
22047;BME280;11187;49.412;20.956;2023-04-06T01:30:00;95058.19;;;-2.68;85.86
22047;BME280;11187;49.412;20.956;2023-04-06T01:32:47;95060.63;;;-2.69;85.04
22047;BME280;11187;49.412;20.956;2023-04-06T01:35:20;95063.13;;;-2.69;85.12
22047;BME280;11187;49.412;20.956;2023-04-06T01:38:14;95073.94;;;-2.70;85.88
22047;BME280;11187;49.412;20.956;2023-04-06T01:41:08;95070.53;;;-2.73;85.79
22047;BME280;11187;49.412;20.956;2023-04-06T01:43:43;95061.31;;;-2.74;85.00
22047;BME280;11187;49.412;20.956;2023-04-06T01:46:34;95050.34;;;-2.77;84.33
22047;BME280;11187;49.412;20.956;2023-04-06T01:49:07;95048.72;;;-2.77;84.72
22047;BME280;11187;49.412;20.956;2023-04-06T01:51:54;95048.66;;;-2.78;84.65
22047;BME280;11187;49.412;20.956;2023-04-06T01:54:27;95042.03;;;-2.76;84.88
22047;BME280;11187;49.412;20.956;2023-04-06T01:57:21;95037.72;;;-2.80;85.12
22047;BME280;11187;49.412;20.956;2023-04-06T02:00:15;95046.00;;;-2.83;84.73
22047;BME280;11187;49.412;20.956;2023-04-06T02:02:48;95034.31;;;-2.82;85.24
22047;BME280;11187;49.412;20.956;2023-04-06T02:05:42;95032.66;;;-2.82;85.91
22047;BME280;11187;49.412;20.956;2023-04-06T02:08:15;95038.50;;;-2.83;85.43
22047;BME280;11187;49.412;20.956;2023-04-06T02:11:09;95036.75;;;-2.85;86.17
22047;BME280;11187;49.412;20.956;2023-04-06T02:13:42;95032.50;;;-2.88;85.71
22047;BME280;11187;49.412;20.956;2023-04-06T02:16:29;95037.53;;;-2.86;85.92
22047;BME280;11187;49.412;20.956;2023-04-06T02:19:02;95025.88;;;-2.86;85.91
22047;BME280;11187;49.412;20.956;2023-04-06T02:21:49;95024.97;;;-2.88;85.97
22047;BME280;11187;49.412;20.956;2023-04-06T02:24:22;95020.81;;;-2.87;85.80
22047;BME280;11187;49.412;20.956;2023-04-06T02:27:09;95023.31;;;-2.87;86.16
22047;BME280;11187;49.412;20.956;2023-04-06T02:29:43;95022.41;;;-2.89;85.86
22047;BME280;11187;49.412;20.956;2023-04-06T02:32:37;95012.47;;;-2.88;86.72
22047;BME280;11187;49.412;20.956;2023-04-06T02:35:31;95018.31;;;-2.87;86.86
22047;BME280;11187;49.412;20.956;2023-04-06T02:38:04;95011.69;;;-2.85;86.99
22047;BME280;11187;49.412;20.956;2023-04-06T02:40:58;95015.94;;;-2.83;86.66
22047;BME280;11187;49.412;20.956;2023-04-06T02:43:52;95022.69;;;-2.80;86.98
22047;BME280;11187;49.412;20.956;2023-04-06T02:46:25;95017.75;;;-2.79;87.36
22047;BME280;11187;49.412;20.956;2023-04-06T02:49:19;95027.78;;;-2.79;86.78
22047;BME280;11187;49.412;20.956;2023-04-06T02:52:13;95026.88;;;-2.81;86.64
22047;BME280;11187;49.412;20.956;2023-04-06T02:55:07;95021.00;;;-2.81;87.28
22047;BME280;11187;49.412;20.956;2023-04-06T02:57:40;95018.50;;;-2.81;87.41
22047;BME280;11187;49.412;20.956;2023-04-06T03:00:27;95016.91;;;-2.79;87.27
22047;BME280;11187;49.412;20.956;2023-04-06T03:03:00;95011.16;;;-2.75;87.06
22047;BME280;11187;49.412;20.956;2023-04-06T03:05:54;95007.88;;;-2.74;88.52
22047;BME280;11187;49.412;20.956;2023-04-06T03:08:29;95000.38;;;-2.73;87.66
22047;BME280;11187;49.412;20.956;2023-04-06T03:11:17;95011.22;;;-2.74;87.70
22047;BME280;11187;49.412;20.956;2023-04-06T03:13:50;95007.16;;;-2.70;87.39
22047;BME280;11187;49.412;20.956;2023-04-06T03:16:44;95006.34;;;-2.69;87.86
22047;BME280;11187;49.412;20.956;2023-04-06T03:19:38;95008.94;;;-2.66;87.73
22047;BME280;11187;49.412;20.956;2023-04-06T03:22:11;95006.47;;;-2.64;88.05
22047;BME280;11187;49.412;20.956;2023-04-06T03:24:58;94999.88;;;-2.62;87.93
22047;BME280;11187;49.412;20.956;2023-04-06T03:27:31;95004.81;;;-2.64;87.84
22047;BME280;11187;49.412;20.956;2023-04-06T03:30:18;95000.63;;;-2.65;88.16
22047;BME280;11187;49.412;20.956;2023-04-06T03:32:51;95004.06;;;-2.61;88.33
22047;BME280;11187;49.412;20.956;2023-04-06T03:35:45;95005.06;;;-2.56;88.36
22047;BME280;11187;49.412;20.956;2023-04-06T03:38:18;94993.38;;;-2.56;88.35
22047;BME280;11187;49.412;20.956;2023-04-06T03:41:12;94999.19;;;-2.57;87.51
22047;BME280;11187;49.412;20.956;2023-04-06T03:43:45;94999.94;;;-2.59;87.47
22047;BME280;11187;49.412;20.956;2023-04-06T03:46:39;94999.19;;;-2.57;87.67
22047;BME280;11187;49.412;20.956;2023-04-06T03:49:12;94993.47;;;-2.53;87.51
22047;BME280;11187;49.412;20.956;2023-04-06T03:52:06;94987.66;;;-2.52;87.96
22047;BME280;11187;49.412;20.956;2023-04-06T03:55:00;94988.56;;;-2.49;88.48
22047;BME280;11187;49.412;20.956;2023-04-06T03:57:54;94991.91;;;-2.49;87.14
22047;BME280;11187;49.412;20.956;2023-04-06T04:00:27;94983.53;;;-2.49;87.92
22047;BME280;11187;49.412;20.956;2023-04-06T04:03:21;94981.63;;;-2.58;87.11
22047;BME280;11187;49.412;20.956;2023-04-06T04:06:15;94986.56;;;-2.60;86.98
22047;BME280;11187;49.412;20.956;2023-04-06T04:09:09;94983.28;;;-2.57;87.06
22047;BME280;11187;49.412;20.956;2023-04-06T04:11:42;94987.53;;;-2.56;87.16
22047;BME280;11187;49.412;20.956;2023-04-06T04:14:36;94986.69;;;-2.55;86.89
22047;BME280;11187;49.412;20.956;2023-04-06T04:17:09;94980.03;;;-2.55;86.60
22047;BME280;11187;49.412;20.956;2023-04-06T04:19:56;94980.84;;;-2.56;87.29
22047;BME280;11187;49.412;20.956;2023-04-06T04:22:29;94981.75;;;-2.54;87.60
22047;BME280;11187;49.412;20.956;2023-04-06T04:25:16;94986.75;;;-2.54;88.40
22047;BME280;11187;49.412;20.956;2023-04-06T04:27:49;94984.31;;;-2.52;87.71
22047;BME280;11187;49.412;20.956;2023-04-06T04:30:36;94980.94;;;-2.53;87.58
22047;BME280;11187;49.412;20.956;2023-04-06T04:33:09;94972.56;;;-2.53;87.74
22047;BME280;11187;49.412;20.956;2023-04-06T04:35:56;94979.28;;;-2.52;87.69
22047;BME280;11187;49.412;20.956;2023-04-06T04:38:29;94976.81;;;-2.50;87.39
22047;BME280;11187;49.412;20.956;2023-04-06T04:41:16;94981.88;;;-2.49;87.88
22047;BME280;11187;49.412;20.956;2023-04-06T04:44:10;94977.63;;;-2.52;88.22
22047;BME280;11187;49.412;20.956;2023-04-06T04:46:43;94979.28;;;-2.52;87.79
22047;BME280;11187;49.412;20.956;2023-04-06T04:49:37;94978.47;;;-2.51;88.97
22047;BME280;11187;49.412;20.956;2023-04-06T04:52:31;94978.41;;;-2.53;88.18
22047;BME280;11187;49.412;20.956;2023-04-06T04:55:04;94967.59;;;-2.52;87.94
22047;BME280;11187;49.412;20.956;2023-04-06T04:57:59;94968.38;;;-2.54;88.47
22047;BME280;11187;49.412;20.956;2023-04-06T05:00:32;94974.94;;;-2.58;88.51
22047;BME280;11187;49.412;20.956;2023-04-06T05:03:23;94981.69;;;-2.55;89.33
22047;BME280;11187;49.412;20.956;2023-04-06T05:05:58;94982.50;;;-2.56;88.16
22047;BME280;11187;49.412;20.956;2023-04-06T05:08:45;94974.16;;;-2.55;89.02
22047;BME280;11187;49.412;20.956;2023-04-06T05:11:18;94977.56;;;-2.53;88.54
22047;BME280;11187;49.412;20.956;2023-04-06T05:14:06;94970.97;;;-2.51;89.30
22047;BME280;11187;49.412;20.956;2023-04-06T05:16:39;94976.78;;;-2.52;88.79
22047;BME280;11187;49.412;20.956;2023-04-06T05:19:26;94974.28;;;-2.52;89.21
22047;BME280;11187;49.412;20.956;2023-04-06T05:21:59;94983.50;;;-2.51;89.72
22047;BME280;11187;49.412;20.956;2023-04-06T05:24:46;94965.88;;;-2.54;89.88
22047;BME280;11187;49.412;20.956;2023-04-06T05:27:19;94969.28;;;-2.52;89.14
22047;BME280;11187;49.412;20.956;2023-04-06T05:30:07;94970.00;;;-2.55;89.27
22047;BME280;11187;49.412;20.956;2023-04-06T05:32:40;94971.59;;;-2.57;89.77
22047;BME280;11187;49.412;20.956;2023-04-06T05:35:27;94961.63;;;-2.55;90.21
22047;BME280;11187;49.412;20.956;2023-04-06T05:38:00;94958.22;;;-2.57;90.65
22047;BME280;11187;49.412;20.956;2023-04-06T05:40:47;94965.75;;;-2.57;90.77
22047;BME280;11187;49.412;20.956;2023-04-06T05:43:41;94966.66;;;-2.55;91.37
22047;BME280;11187;49.412;20.956;2023-04-06T05:46:35;94966.56;;;-2.58;91.48
22047;BME280;11187;49.412;20.956;2023-04-06T05:49:08;94961.59;;;-2.57;91.69
22047;BME280;11187;49.412;20.956;2023-04-06T05:51:55;94953.22;;;-2.57;91.64
22047;BME280;11187;49.412;20.956;2023-04-06T05:54:28;94957.53;;;-2.53;92.53
22047;BME280;11187;49.412;20.956;2023-04-06T05:57:15;94951.03;;;-2.46;92.69
22047;BME280;11187;49.412;20.956;2023-04-06T05:59:49;94951.22;;;-2.40;92.78
22047;BME280;11187;49.412;20.956;2023-04-06T06:02:43;94953.84;;;-2.36;92.03
22047;BME280;11187;49.412;20.956;2023-04-06T06:05:37;94944.78;;;-2.31;91.81
22047;BME280;11187;49.412;20.956;2023-04-06T06:08:10;94943.22;;;-2.27;91.38
22047;BME280;11187;49.412;20.956;2023-04-06T06:10:57;94942.53;;;-2.21;92.08
22047;BME280;11187;49.412;20.956;2023-04-06T06:13:30;94940.03;;;-2.21;91.49
22047;BME280;11187;49.412;20.956;2023-04-06T06:16:18;94942.66;;;-2.17;91.33
22047;BME280;11187;49.412;20.956;2023-04-06T06:18:52;94946.06;;;-2.15;91.54
22047;BME280;11187;49.412;20.956;2023-04-06T06:21:39;94936.84;;;-2.16;91.85
22047;BME280;11187;49.412;20.956;2023-04-06T06:24:12;94942.66;;;-2.17;91.20
22047;BME280;11187;49.412;20.956;2023-04-06T06:27:07;94947.81;;;-2.12;92.20
22047;BME280;11187;49.412;20.956;2023-04-06T06:30:02;94944.50;;;-2.11;91.53
22047;BME280;11187;49.412;20.956;2023-04-06T06:32:35;94944.41;;;-2.14;91.13
22047;BME280;11187;49.412;20.956;2023-04-06T06:35:22;94941.75;;;-2.19;91.15
22047;BME280;11187;49.412;20.956;2023-04-06T06:37:55;94934.34;;;-2.16;91.66
22047;BME280;11187;49.412;20.956;2023-04-06T06:40:49;94932.88;;;-2.07;92.63
22047;BME280;11187;49.412;20.956;2023-04-06T06:43:43;94933.84;;;-2.02;90.90
22047;BME280;11187;49.412;20.956;2023-04-06T06:46:16;94928.81;;;-2.02;91.09
22047;BME280;11187;49.412;20.956;2023-04-06T06:49:10;94926.44;;;-1.98;90.91
22047;BME280;11187;49.412;20.956;2023-04-06T06:52:04;94933.16;;;-1.97;91.87
22047;BME280;11187;49.412;20.956;2023-04-06T06:54:37;94924.03;;;-1.93;91.15
22047;BME280;11187;49.412;20.956;2023-04-06T06:57:31;94936.22;;;-2.07;91.05
22047;BME280;11187;49.412;20.956;2023-04-06T07:00:05;94931.22;;;-2.07;91.57
22047;BME280;11187;49.412;20.956;2023-04-06T07:02:53;94928.69;;;-2.07;91.61
22047;BME280;11187;49.412;20.956;2023-04-06T07:05:26;94922.72;;;-2.12;92.81
22047;BME280;11187;49.412;20.956;2023-04-06T07:08:13;94924.22;;;-2.19;92.42
22047;BME280;11187;49.412;20.956;2023-04-06T07:10:46;94935.09;;;-2.18;92.65
22047;BME280;11187;49.412;20.956;2023-04-06T07:13:40;94937.59;;;-2.18;92.48
22047;BME280;11187;49.412;20.956;2023-04-06T07:16:34;94947.56;;;-2.21;93.40
22047;BME280;11187;49.412;20.956;2023-04-06T07:19:07;94926.53;;;-2.26;92.90
22047;BME280;11187;49.412;20.956;2023-04-06T07:21:54;94934.25;;;-2.19;93.74
22047;BME280;11187;49.412;20.956;2023-04-06T07:24:27;94924.38;;;-2.13;96.00
22047;BME280;11187;49.412;20.956;2023-04-06T07:27:14;94926.78;;;-2.17;94.15
22047;BME280;11187;49.412;20.956;2023-04-06T07:29:49;94919.97;;;-2.21;93.63
22047;BME280;11187;49.412;20.956;2023-04-06T07:32:36;94924.25;;;-2.17;94.28
22047;BME280;11187;49.412;20.956;2023-04-06T07:35:09;94937.47;;;-2.23;93.34
22047;BME280;11187;49.412;20.956;2023-04-06T07:38:03;94924.56;;;-2.37;94.25
22047;BME280;11187;49.412;20.956;2023-04-06T07:40:36;94929.56;;;-2.38;94.03
22047;BME280;11187;49.412;20.956;2023-04-06T07:43:30;94926.22;;;-2.37;94.59
22047;BME280;11187;49.412;20.956;2023-04-06T07:46:25;94915.41;;;-2.35;94.49
22047;BME280;11187;49.412;20.956;2023-04-06T07:49:00;94934.84;;;-2.27;95.10
22047;BME280;11187;49.412;20.956;2023-04-06T07:51:47;94920.63;;;-2.28;94.85
22047;BME280;11187;49.412;20.956;2023-04-06T07:54:20;94920.63;;;-2.28;95.47
22047;BME280;11187;49.412;20.956;2023-04-06T07:57:07;94915.41;;;-2.35;96.08
22047;BME280;11187;49.412;20.956;2023-04-06T07:59:40;94917.13;;;-2.34;95.47
22047;BME280;11187;49.412;20.956;2023-04-06T08:02:34;94922.28;;;-2.29;96.78
22047;BME280;11187;49.412;20.956;2023-04-06T08:05:08;94921.66;;;-2.20;98.19
22047;BME280;11187;49.412;20.956;2023-04-06T08:08:02;94917.63;;;-2.15;96.33
22047;BME280;11187;49.412;20.956;2023-04-06T08:10:38;94916.63;;;-2.20;95.39
22047;BME280;11187;49.412;20.956;2023-04-06T08:13:32;94912.25;;;-2.29;95.15
22047;BME280;11187;49.412;20.956;2023-04-06T08:16:26;94921.47;;;-2.28;95.77
22047;BME280;11187;49.412;20.956;2023-04-06T08:18:59;94913.16;;;-2.27;95.93
22047;BME280;11187;49.412;20.956;2023-04-06T08:21:49;94918.19;;;-2.25;96.30
22047;BME280;11187;49.412;20.956;2023-04-06T08:24:24;94918.78;;;-2.34;96.34
22047;BME280;11187;49.412;20.956;2023-04-06T08:27:12;94907.88;;;-2.36;96.84
22047;BME280;11187;49.412;20.956;2023-04-06T08:29:49;94916.97;;;-2.40;98.09
22047;BME280;11187;49.412;20.956;2023-04-06T08:32:36;94903.72;;;-2.36;98.86
22047;BME280;11187;49.412;20.956;2023-04-06T08:35:09;94903.78;;;-2.33;97.47
22047;BME280;11187;49.412;20.956;2023-04-06T08:37:57;94897.16;;;-2.31;97.52
22047;BME280;11187;49.412;20.956;2023-04-06T08:40:36;94893.16;;;-2.24;99.32
22047;BME280;11187;49.412;20.956;2023-04-06T08:43:25;94894.06;;;-2.20;98.84
22047;BME280;11187;49.412;20.956;2023-04-06T08:45:59;94891.78;;;-2.13;98.33
22047;BME280;11187;49.412;20.956;2023-04-06T08:48:47;94886.94;;;-2.06;98.52
22047;BME280;11187;49.412;20.956;2023-04-06T08:51:26;94888.56;;;-2.07;97.99
22047;BME280;11187;49.412;20.956;2023-04-06T08:54:13;94883.66;;;-2.04;98.22
22047;BME280;11187;49.412;20.956;2023-04-06T08:56:47;94886.94;;;-2.06;98.04
22047;BME280;11187;49.412;20.956;2023-04-06T08:59:36;94876.84;;;-2.08;97.58
22047;BME280;11187;49.412;20.956;2023-04-06T09:02:15;94880.97;;;-2.10;97.41
22047;BME280;11187;49.412;20.956;2023-04-06T09:05:12;94885.34;;;-2.03;97.38
22047;BME280;11187;49.412;20.956;2023-04-06T09:08:06;94889.50;;;-2.03;96.43
22047;BME280;11187;49.412;20.956;2023-04-06T09:10:42;94890.31;;;-2.04;96.88
22047;BME280;11187;49.412;20.956;2023-04-06T09:13:29;94887.13;;;-1.99;97.55
22047;BME280;11187;49.412;20.956;2023-04-06T09:16:04;94891.25;;;-2.01;96.98
22047;BME280;11187;49.412;20.956;2023-04-06T09:19:04;94902.13;;;-2.00;96.71
22047;BME280;11187;49.412;20.956;2023-04-06T09:21:38;94889.69;;;-1.96;97.18
22047;BME280;11187;49.412;20.956;2023-04-06T09:24:25;94895.00;;;-1.85;97.82
22047;BME280;11187;49.412;20.956;2023-04-06T09:26:58;94888.31;;;-1.84;98.27
22047;BME280;11187;49.412;20.956;2023-04-06T09:29:45;94890.81;;;-1.84;97.75
22047;BME280;11187;49.412;20.956;2023-04-06T09:32:18;94889.19;;;-1.84;97.55
22047;BME280;11187;49.412;20.956;2023-04-06T09:35:07;94877.47;;;-1.83;97.57
22047;BME280;11187;49.412;20.956;2023-04-06T09:37:41;94874.16;;;-1.82;97.57
22047;BME280;11187;49.412;20.956;2023-04-06T09:40:28;94881.78;;;-1.79;97.78
22047;BME280;11187;49.412;20.956;2023-04-06T09:43:01;94870.19;;;-1.73;97.78
22047;BME280;11187;49.412;20.956;2023-04-06T09:45:48;94873.66;;;-1.69;97.39
22047;BME280;11187;49.412;20.956;2023-04-06T09:48:22;94856.97;;;-1.67;97.00
22047;BME280;11187;49.412;20.956;2023-04-06T09:51:18;94852.78;;;-1.66;97.60
22047;BME280;11187;49.412;20.956;2023-04-06T09:54:24;94852.88;;;-1.63;97.90
22047;BME280;11187;49.412;20.956;2023-04-06T09:57:26;94855.44;;;-1.60;97.73
22047;BME280;11187;49.412;20.956;2023-04-06T10:00:06;94855.50;;;-1.59;97.17
22047;BME280;11187;49.412;20.956;2023-04-06T10:08:34;94854.63;;;-1.59;96.63
22047;BME280;11187;49.412;20.956;2023-04-06T10:11:31;94857.25;;;-1.55;96.99
22047;BME280;11187;49.412;20.956;2023-04-06T10:14:25;94852.22;;;-1.56;97.02
22047;BME280;11187;49.412;20.956;2023-04-06T10:17:19;94858.13;;;-1.54;97.72
22047;BME280;11187;49.412;20.956;2023-04-06T10:20:21;94855.00;;;-1.44;97.08
22047;BME280;11187;49.412;20.956;2023-04-06T10:23:13;94852.63;;;-1.36;97.02
22047;BME280;11187;49.412;20.956;2023-04-06T10:26:15;94848.50;;;-1.36;96.48
22047;BME280;11187;49.412;20.956;2023-04-06T10:29:09;94850.25;;;-1.32;97.35
22047;BME280;11187;49.412;20.956;2023-04-06T10:31:42;94843.56;;;-1.31;97.01
22047;BME280;11187;49.412;20.956;2023-04-06T10:34:35;94849.44;;;-1.31;96.83
22047;BME280;11187;49.412;20.956;2023-04-06T10:37:15;94841.94;;;-1.29;96.94
22047;BME280;11187;49.412;20.956;2023-04-06T10:40:02;94841.28;;;-1.20;96.97
22047;BME280;11187;49.412;20.956;2023-04-06T10:42:38;94839.75;;;-1.15;97.35
22047;BME280;11187;49.412;20.956;2023-04-06T10:45:26;94837.13;;;-1.18;95.88
22047;BME280;11187;49.412;20.956;2023-04-06T10:47:59;94833.97;;;-1.10;95.71
22047;BME280;11187;49.412;20.956;2023-04-06T10:50:53;94833.44;;;-0.96;96.63
22047;BME280;11187;49.412;20.956;2023-04-06T10:53:27;94834.44;;;-0.88;96.73
22047;BME280;11187;49.412;20.956;2023-04-06T10:56:23;94827.09;;;-0.77;96.43
22047;BME280;11187;49.412;20.956;2023-04-06T10:58:58;94829.72;;;-0.73;95.43
22047;BME280;11187;49.412;20.956;2023-04-06T11:01:45;94829.84;;;-0.67;95.12
22047;BME280;11187;49.412;20.956;2023-04-06T11:04:23;94817.31;;;-0.65;95.38
22047;BME280;11187;49.412;20.956;2023-04-06T11:07:09;94815.78;;;-0.57;95.96
22047;BME280;11187;49.412;20.956;2023-04-06T11:09:49;94825.13;;;-0.51;96.03
22047;BME280;11187;49.412;20.956;2023-04-06T11:12:59;94831.78;;;-0.53;96.32
22047;BME280;11187;49.412;20.956;2023-04-06T11:15:54;94827.53;;;-0.56;97.32
22047;BME280;11187;49.412;20.956;2023-04-06T11:18:27;94832.34;;;-0.67;96.33
22047;BME280;11187;49.412;20.956;2023-04-06T11:21:14;94831.47;;;-0.69;97.15
22047;BME280;11187;49.412;20.956;2023-04-06T11:23:47;94828.16;;;-0.68;97.20
22047;BME280;11187;49.412;20.956;2023-04-06T11:26:39;94834.81;;;-0.70;96.27
22047;BME280;11187;49.412;20.956;2023-04-06T11:29:13;94819.91;;;-0.60;96.70
22047;BME280;11187;49.412;20.956;2023-04-06T11:32:01;94820.06;;;-0.53;96.19
22047;BME280;11187;49.412;20.956;2023-04-06T11:34:36;94811.03;;;-0.43;97.08
22047;BME280;11187;49.412;20.956;2023-04-06T11:37:26;94818.75;;;-0.34;95.58
22047;BME280;11187;49.412;20.956;2023-04-06T11:40:00;94818.94;;;-0.23;96.08
22047;BME280;11187;49.412;20.956;2023-04-06T11:42:55;94822.56;;;-0.09;95.81
22047;BME280;11187;49.412;20.956;2023-04-06T11:45:49;94822.84;;;0.08;95.80
22047;BME280;11187;49.412;20.956;2023-04-06T11:48:44;94819.56;;;0.12;94.46
22047;BME280;11187;49.412;20.956;2023-04-06T11:51:38;94811.19;;;0.15;94.92
22047;BME280;11187;49.412;20.956;2023-04-06T11:54:36;94817.91;;;0.14;94.86
22047;BME280;11187;49.412;20.956;2023-04-06T11:57:30;94812.72;;;0.05;93.72
22047;BME280;11187;49.412;20.956;2023-04-06T12:00:04;94809.97;;;-0.07;93.67
22047;BME280;11187;49.412;20.956;2023-04-06T12:02:51;94808.13;;;-0.17;92.78
22047;BME280;11187;49.412;20.956;2023-04-06T12:05:24;94807.06;;;-0.30;93.98
22047;BME280;11187;49.412;20.956;2023-04-06T12:08:11;94806.13;;;-0.35;93.38
22047;BME280;11187;49.412;20.956;2023-04-06T12:10:44;94803.75;;;-0.29;94.51
22047;BME280;11187;49.412;20.956;2023-04-06T12:13:31;94809.66;;;-0.27;94.67
22047;BME280;11187;49.412;20.956;2023-04-06T12:16:04;94797.16;;;-0.21;95.78
22047;BME280;11187;49.412;20.956;2023-04-06T12:18:58;94801.22;;;-0.28;94.42
22047;BME280;11187;49.412;20.956;2023-04-06T12:21:53;94808.81;;;-0.26;95.15
22047;BME280;11187;49.412;20.956;2023-04-06T12:24:28;94811.13;;;-0.38;94.79
22047;BME280;11187;49.412;20.956;2023-04-06T12:27:14;94820.31;;;-0.39;95.50
22047;BME280;11187;49.412;20.956;2023-04-06T12:29:47;94803.56;;;-0.38;96.25
22047;BME280;11187;49.412;20.956;2023-04-06T12:32:35;94809.53;;;-0.33;95.85
22047;BME280;11187;49.412;20.956;2023-04-06T12:35:08;94802.63;;;-0.44;94.95
22047;BME280;11187;49.412;20.956;2023-04-06T12:38:02;94806.56;;;-0.58;95.46
22047;BME280;11187;49.412;20.956;2023-04-06T12:40:56;94789.00;;;-0.56;95.33
22047;BME280;11187;49.412;20.956;2023-04-06T12:43:29;94782.25;;;-0.59;95.88
22047;BME280;11187;49.412;20.956;2023-04-06T12:46:17;94789.88;;;-0.53;96.04
22047;BME280;11187;49.412;20.956;2023-04-06T12:48:51;94794.78;;;-0.60;95.73
22047;BME280;11187;49.412;20.956;2023-04-06T12:51:39;94785.69;;;-0.54;95.47
22047;BME280;11187;49.412;20.956;2023-04-06T12:54:12;94797.50;;;-0.48;96.18
22047;BME280;11187;49.412;20.956;2023-04-06T12:56:59;94805.88;;;-0.49;96.16
22047;BME280;11187;49.412;20.956;2023-04-06T12:59:33;94812.47;;;-0.56;95.42
22047;BME280;11187;49.412;20.956;2023-04-06T13:02:20;94810.03;;;-0.51;95.69
22047;BME280;11187;49.412;20.956;2023-04-06T13:04:54;94796.63;;;-0.50;96.50
22047;BME280;11187;49.412;20.956;2023-04-06T13:07:42;94793.22;;;-0.52;95.54
22047;BME280;11187;49.412;20.956;2023-04-06T13:10:15;94788.13;;;-0.57;95.42
22047;BME280;11187;49.412;20.956;2023-04-06T13:13:02;94766.22;;;-0.64;96.33
22047;BME280;11187;49.412;20.956;2023-04-06T13:15:35;94781.38;;;-0.59;95.71
22047;BME280;11187;49.412;20.956;2023-04-06T13:18:22;94767.16;;;-0.59;95.87
22047;BME280;11187;49.412;20.956;2023-04-06T13:20:56;94778.97;;;-0.53;96.57
22047;BME280;11187;49.412;20.956;2023-04-06T13:23:43;94778.94;;;-0.56;96.31
22047;BME280;11187;49.412;20.956;2023-04-06T13:26:16;94786.41;;;-0.61;95.74
22047;BME280;11187;49.412;20.956;2023-04-06T13:29:03;94773.75;;;-0.66;96.27
22047;BME280;11187;49.412;20.956;2023-04-06T13:31:37;94772.91;;;-0.65;96.45
22047;BME280;11187;49.412;20.956;2023-04-06T13:34:31;94777.13;;;-0.62;97.38
22047;BME280;11187;49.412;20.956;2023-04-06T13:37:04;94783.75;;;-0.67;96.81
22047;BME280;11187;49.412;20.956;2023-04-06T13:39:51;94788.13;;;-0.57;96.92
22047;BME280;11187;49.412;20.956;2023-04-06T13:42:25;94773.91;;;-0.55;96.19
22047;BME280;11187;49.412;20.956;2023-04-06T13:45:19;94765.72;;;-0.45;96.36
22047;BME280;11187;49.412;20.956;2023-04-06T13:48:13;94773.41;;;-0.38;95.88
22047;BME280;11187;49.412;20.956;2023-04-06T13:50:46;94783.53;;;-0.32;96.01
22047;BME280;11187;49.412;20.956;2023-04-06T13:53:40;94777.47;;;-0.45;94.89
22047;BME280;11187;49.412;20.956;2023-04-06T13:56:34;94787.41;;;-0.51;95.44
22047;BME280;11187;49.412;20.956;2023-04-06T13:59:35;94775.47;;;-0.61;95.67
22047;BME280;11187;49.412;20.956;2023-04-06T14:02:13;94775.53;;;-0.58;95.77
22047;BME280;11187;49.412;20.956;2023-04-06T14:05:07;94777.97;;;-0.61;95.91
22047;BME280;11187;49.412;20.956;2023-04-06T14:08:01;94774.63;;;-0.64;97.23
22047;BME280;11187;49.412;20.956;2023-04-06T14:10:41;94780.34;;;-0.69;97.13
22047;BME280;11187;49.412;20.956;2023-04-06T14:13:28;94782.22;;;-0.60;97.34
22047;BME280;11187;49.412;20.956;2023-04-06T14:16:01;94789.91;;;-0.51;97.39
22047;BME280;11187;49.412;20.956;2023-04-06T14:18:48;94783.00;;;-0.61;96.79
22047;BME280;11187;49.412;20.956;2023-04-06T14:21:21;94793.97;;;-0.58;97.32